createdAt,value
2018-11-27T00:00:21.784Z,0.00
2018-11-27T00:01:21.771Z,0.00
2018-11-27T00:02:21.762Z,0.00
2018-11-27T00:03:21.810Z,0.00
2018-11-27T00:04:21.740Z,0.00
2018-11-27T00:05:21.733Z,0.00
2018-11-27T00:06:21.722Z,0.00
2018-11-27T00:07:21.710Z,0.00
2018-11-27T00:08:21.770Z,0.00
2018-11-27T00:09:22.653Z,0.00
2018-11-27T00:10:21.680Z,0.00
2018-11-27T00:11:21.671Z,0.00
2018-11-27T00:12:21.665Z,0.00
2018-11-27T00:13:21.714Z,0.00
2018-11-27T00:14:21.641Z,0.00
2018-11-27T00:15:21.634Z,0.00
2018-11-27T00:16:21.620Z,0.00
2018-11-27T00:17:21.612Z,0.00
2018-11-27T00:18:21.655Z,0.00
2018-11-27T00:19:21.596Z,0.00
2018-11-27T00:20:21.579Z,0.00
2018-11-27T00:21:21.563Z,0.00
2018-11-27T00:22:21.555Z,0.00
2018-11-27T00:23:21.608Z,0.00
2018-11-27T00:24:21.534Z,0.00
2018-11-27T00:25:21.524Z,0.00
2018-11-27T00:26:21.515Z,0.00
2018-11-27T00:27:21.505Z,0.00
2018-11-27T00:28:21.555Z,0.00
2018-11-27T00:29:21.483Z,0.00
2018-11-27T00:30:22.144Z,0.00
2018-11-27T00:31:21.483Z,0.00
2018-11-27T00:32:21.450Z,0.00
2018-11-27T00:33:21.502Z,0.00
2018-11-27T00:34:21.426Z,0.00
2018-11-27T00:35:21.422Z,0.00
2018-11-27T00:36:21.405Z,0.00
2018-11-27T00:37:21.399Z,0.00
2018-11-27T00:38:21.459Z,0.00
2018-11-27T00:39:21.378Z,0.00
2018-11-27T00:40:21.366Z,0.00
2018-11-27T00:41:21.357Z,0.00
2018-11-27T00:42:21.342Z,0.00
2018-11-27T00:43:21.336Z,0.00
2018-11-27T00:44:21.387Z,0.00
2018-11-27T00:45:21.312Z,0.00
2018-11-27T00:46:21.301Z,0.00
2018-11-27T00:47:21.291Z,0.00
2018-11-27T00:48:21.283Z,0.00
2018-11-27T00:49:21.333Z,0.00
2018-11-27T00:50:21.259Z,0.00
2018-11-27T00:51:22.143Z,0.00
2018-11-27T00:52:21.235Z,0.00
2018-11-27T00:53:21.226Z,0.00
2018-11-27T00:54:21.275Z,0.00
2018-11-27T00:55:21.208Z,0.00
2018-11-27T00:56:21.207Z,0.00
2018-11-27T00:57:21.179Z,0.00
2018-11-27T00:58:21.175Z,0.00
2018-11-27T00:59:21.243Z,0.00
2018-11-27T01:00:21.151Z,0.00
2018-11-27T01:01:21.142Z,0.00
2018-11-27T01:02:21.137Z,0.00
2018-11-27T01:03:21.127Z,0.00
2018-11-27T01:04:21.176Z,0.00
2018-11-27T01:05:21.111Z,0.00
2018-11-27T01:06:21.107Z,0.00
2018-11-27T01:07:21.079Z,0.00
2018-11-27T01:08:21.073Z,0.00
2018-11-27T01:09:21.128Z,0.00
2018-11-27T01:10:21.051Z,0.00
2018-11-27T01:11:21.043Z,0.00
2018-11-27T01:12:21.639Z,0.00
2018-11-27T01:13:21.020Z,0.00
2018-11-27T01:14:21.066Z,0.00
2018-11-27T01:15:21.003Z,0.00
2018-11-27T01:16:20.989Z,0.00
2018-11-27T01:17:20.991Z,0.00
2018-11-27T01:18:20.963Z,0.00
2018-11-27T01:19:21.015Z,0.00
2018-11-27T01:20:20.951Z,0.00
2018-11-27T01:21:20.936Z,0.00
2018-11-27T01:22:20.929Z,0.00
2018-11-27T01:23:20.914Z,0.00
2018-11-27T01:24:20.964Z,0.00
2018-11-27T01:25:20.893Z,0.00
2018-11-27T01:26:20.882Z,0.00
2018-11-27T01:27:20.873Z,0.00
2018-11-27T01:28:20.863Z,0.00
2018-11-27T01:29:20.916Z,0.00
2018-11-27T01:30:20.860Z,0.00
2018-11-27T01:31:20.833Z,0.00
2018-11-27T01:32:20.818Z,0.00
2018-11-27T01:33:21.639Z,0.00
2018-11-27T01:34:20.863Z,0.00
2018-11-27T01:35:20.789Z,0.00
2018-11-27T01:36:20.777Z,0.00
2018-11-27T01:37:21.637Z,0.00
2018-11-27T01:38:20.762Z,0.00
2018-11-27T01:39:20.808Z,0.00
2018-11-27T01:40:20.739Z,0.00
2018-11-27T01:41:20.727Z,0.00
2018-11-27T01:42:20.718Z,0.00
2018-11-27T01:43:20.702Z,0.00
2018-11-27T01:44:20.757Z,0.00
2018-11-27T01:45:20.686Z,0.00
2018-11-27T01:46:20.678Z,0.00
2018-11-27T01:47:20.666Z,0.00
2018-11-27T01:48:20.652Z,0.00
2018-11-27T01:49:20.704Z,0.00
2018-11-27T01:50:20.648Z,0.00
2018-11-27T01:51:20.627Z,0.00
2018-11-27T01:52:20.610Z,0.00
2018-11-27T01:53:20.602Z,0.00
2018-11-27T01:54:20.709Z,0.00
2018-11-27T01:55:20.590Z,0.00
2018-11-27T01:56:20.576Z,0.00
2018-11-27T01:57:20.565Z,0.00
2018-11-27T01:58:20.553Z,0.00
2018-11-27T01:59:20.607Z,0.00
2018-11-27T02:00:20.535Z,0.00
2018-11-27T02:01:20.520Z,0.00
2018-11-27T02:02:20.508Z,0.00
2018-11-27T02:03:20.499Z,0.00
2018-11-27T02:04:20.564Z,0.00
2018-11-27T02:05:20.476Z,0.00
2018-11-27T02:06:20.491Z,0.00
2018-11-27T02:07:20.455Z,0.00
2018-11-27T02:08:20.447Z,0.00
2018-11-27T02:09:20.497Z,0.00
2018-11-27T02:10:20.425Z,0.00
2018-11-27T02:11:20.416Z,0.00
2018-11-27T02:12:20.404Z,0.00
2018-11-27T02:13:20.393Z,0.00
2018-11-27T02:14:20.441Z,0.00
2018-11-27T02:15:21.132Z,0.00
2018-11-27T02:16:20.362Z,0.00
2018-11-27T02:17:20.369Z,0.00
2018-11-27T02:18:20.351Z,0.00
2018-11-27T02:19:20.396Z,0.00
2018-11-27T02:20:20.318Z,0.00
2018-11-27T02:21:20.310Z,0.00
2018-11-27T02:22:20.323Z,0.00
2018-11-27T02:23:20.289Z,0.00
2018-11-27T02:24:20.340Z,0.00
2018-11-27T02:25:20.267Z,0.00
2018-11-27T02:26:20.258Z,0.00
2018-11-27T02:27:20.249Z,0.00
2018-11-27T02:28:20.243Z,0.00
2018-11-27T02:29:20.292Z,0.00
2018-11-27T02:30:20.222Z,0.00
2018-11-27T02:31:20.234Z,0.00
2018-11-27T02:32:20.204Z,0.00
2018-11-27T02:33:20.261Z,0.00
2018-11-27T02:34:20.260Z,0.00
2018-11-27T02:35:20.169Z,0.00
2018-11-27T02:36:21.132Z,0.00
2018-11-27T02:37:20.158Z,0.00
2018-11-27T02:38:20.133Z,0.00
2018-11-27T02:39:20.195Z,0.00
2018-11-27T02:40:20.117Z,0.00
2018-11-27T02:41:20.155Z,0.00
2018-11-27T02:42:20.126Z,0.00
2018-11-27T02:43:20.082Z,0.00
2018-11-27T02:44:20.073Z,0.00
2018-11-27T02:45:20.130Z,0.00
2018-11-27T02:46:20.059Z,0.00
2018-11-27T02:47:20.045Z,0.00
2018-11-27T02:48:20.036Z,0.00
2018-11-27T02:49:20.024Z,0.00
2018-11-27T02:50:20.074Z,0.00
2018-11-27T02:51:20.001Z,0.00
2018-11-27T02:52:19.991Z,0.00
2018-11-27T02:53:19.983Z,0.00
2018-11-27T02:54:19.976Z,0.00
2018-11-27T02:55:20.022Z,0.00
2018-11-27T02:56:19.948Z,0.00
2018-11-27T02:57:20.634Z,0.00
2018-11-27T02:58:19.928Z,0.00
2018-11-27T02:59:19.917Z,0.00
2018-11-27T03:00:19.969Z,0.00
2018-11-27T03:01:19.897Z,0.00
2018-11-27T03:02:19.888Z,0.00
2018-11-27T03:03:19.875Z,0.00
2018-11-27T03:04:19.866Z,0.00
2018-11-27T03:05:19.928Z,0.00
2018-11-27T03:06:19.848Z,0.00
2018-11-27T03:07:19.834Z,0.00
2018-11-27T03:08:19.838Z,0.00
2018-11-27T03:09:19.814Z,0.00
2018-11-27T03:10:19.863Z,0.00
2018-11-27T03:11:19.797Z,0.00
2018-11-27T03:12:19.789Z,0.00
2018-11-27T03:13:19.776Z,0.00
2018-11-27T03:14:19.761Z,0.00
2018-11-27T03:15:19.818Z,0.00
2018-11-27T03:16:19.746Z,0.00
2018-11-27T03:17:19.747Z,0.00
2018-11-27T03:18:21.636Z,0.00
2018-11-27T03:19:19.718Z,0.00
2018-11-27T03:20:19.763Z,0.00
2018-11-27T03:21:19.704Z,0.00
2018-11-27T03:22:19.682Z,0.00
2018-11-27T03:23:19.672Z,0.00
2018-11-27T03:24:19.667Z,0.00
2018-11-27T03:25:19.716Z,0.00
2018-11-27T03:26:19.638Z,0.00
2018-11-27T03:27:19.632Z,0.00
2018-11-27T03:28:19.617Z,0.00
2018-11-27T03:29:19.627Z,0.00
2018-11-27T03:30:19.661Z,0.00
2018-11-27T03:31:19.589Z,0.00
2018-11-27T03:32:19.595Z,0.00
2018-11-27T03:33:19.576Z,0.00
2018-11-27T03:34:19.555Z,0.00
2018-11-27T03:35:19.625Z,0.00
2018-11-27T03:36:19.536Z,0.00
2018-11-27T03:37:19.525Z,0.00
2018-11-27T03:38:19.518Z,0.00
2018-11-27T03:39:20.121Z,0.00
2018-11-27T03:40:19.559Z,0.00
2018-11-27T03:41:19.483Z,0.00
2018-11-27T03:42:19.474Z,0.00
2018-11-27T03:43:19.483Z,0.00
2018-11-27T03:44:19.453Z,0.00
2018-11-27T03:45:19.509Z,0.00
2018-11-27T03:46:19.435Z,0.00
2018-11-27T03:47:19.428Z,0.00
2018-11-27T03:48:19.414Z,0.00
2018-11-27T03:49:19.402Z,0.00
2018-11-27T03:50:19.449Z,0.00
2018-11-27T03:51:19.387Z,0.00
2018-11-27T03:52:19.375Z,0.00
2018-11-27T03:53:19.365Z,0.00
2018-11-27T03:54:19.355Z,0.00
2018-11-27T03:55:19.397Z,0.00
2018-11-27T03:56:19.335Z,0.00
2018-11-27T03:57:19.318Z,0.00
2018-11-27T03:58:19.308Z,0.00
2018-11-27T03:59:19.300Z,0.00
2018-11-27T04:00:19.688Z,0.00
2018-11-27T04:01:19.279Z,0.00
2018-11-27T04:02:19.269Z,0.00
2018-11-27T04:03:19.257Z,0.00
2018-11-27T04:04:19.249Z,0.00
2018-11-27T04:05:19.302Z,0.00
2018-11-27T04:06:19.250Z,0.00
2018-11-27T04:07:19.225Z,0.00
2018-11-27T04:08:19.223Z,0.00
2018-11-27T04:09:19.196Z,0.00
2018-11-27T04:10:19.252Z,0.00
2018-11-27T04:11:19.172Z,0.00
2018-11-27T04:12:19.165Z,0.00
2018-11-27T04:13:19.159Z,0.00
2018-11-27T04:14:19.145Z,0.00
2018-11-27T04:15:19.202Z,0.00
2018-11-27T04:16:19.123Z,0.00
2018-11-27T04:17:19.112Z,0.00
2018-11-27T04:18:19.104Z,0.00
2018-11-27T04:19:19.092Z,0.00
2018-11-27T04:20:19.144Z,0.00
2018-11-27T04:21:19.622Z,0.00
2018-11-27T04:22:19.059Z,0.00
2018-11-27T04:24:14.788Z,0.00
2018-11-27T04:25:14.813Z,0.00
2018-11-27T04:26:14.709Z,0.00
2018-11-27T04:27:14.707Z,0.00
2018-11-27T04:28:14.692Z,0.00
2018-11-27T04:29:14.678Z,0.00
2018-11-27T04:30:14.746Z,0.00
2018-11-27T04:31:14.732Z,0.00
2018-11-27T04:32:14.641Z,0.00
2018-11-27T04:33:14.639Z,0.00
2018-11-27T04:34:14.622Z,0.00
2018-11-27T04:35:14.633Z,0.00
2018-11-27T04:36:14.662Z,0.00
2018-11-27T04:37:14.592Z,0.00
2018-11-27T04:38:14.612Z,0.00
2018-11-27T04:39:15.371Z,0.00
2018-11-27T04:40:14.563Z,0.00
2018-11-27T04:41:14.606Z,0.00
2018-11-27T04:42:15.373Z,0.00
2018-11-27T04:43:14.532Z,0.00
2018-11-27T04:44:14.518Z,0.00
2018-11-27T04:45:14.521Z,0.00
2018-11-27T04:46:14.558Z,0.00
2018-11-27T04:47:14.484Z,0.00
2018-11-27T04:48:14.474Z,0.00
2018-11-27T04:49:14.470Z,0.00
2018-11-27T04:50:14.457Z,0.00
2018-11-27T04:51:14.509Z,0.00
2018-11-27T04:52:14.433Z,0.00
2018-11-27T04:53:14.425Z,0.00
2018-11-27T04:54:14.411Z,0.00
2018-11-27T04:55:14.401Z,0.00
2018-11-27T04:56:14.458Z,0.00
2018-11-27T04:57:14.380Z,0.00
2018-11-27T04:58:14.371Z,0.00
2018-11-27T04:59:14.359Z,0.00
2018-11-27T05:00:14.353Z,0.00
2018-11-27T05:01:14.400Z,0.00
2018-11-27T05:02:14.326Z,0.00
2018-11-27T05:03:14.871Z,0.00
2018-11-27T05:04:14.305Z,0.00
2018-11-27T05:05:14.296Z,0.00
2018-11-27T05:06:14.345Z,0.00
2018-11-27T05:07:14.273Z,0.00
2018-11-27T05:08:14.258Z,0.00
2018-11-27T05:09:14.249Z,0.00
2018-11-27T05:10:14.243Z,0.00
2018-11-27T05:11:14.301Z,0.00
2018-11-27T05:12:14.222Z,0.00
2018-11-27T05:13:14.207Z,0.00
2018-11-27T05:14:14.195Z,0.00
2018-11-27T05:15:14.186Z,0.00
2018-11-27T05:16:14.251Z,0.00
2018-11-27T05:17:14.165Z,0.00
2018-11-27T05:18:14.156Z,0.00
2018-11-27T05:19:14.147Z,0.00
2018-11-27T05:20:14.135Z,0.00
2018-11-27T05:21:14.193Z,0.00
2018-11-27T05:22:14.117Z,0.00
2018-11-27T05:23:14.102Z,0.00
2018-11-27T05:24:14.865Z,0.00
2018-11-27T05:25:14.081Z,0.00
2018-11-27T05:26:14.136Z,0.00
2018-11-27T05:27:14.058Z,0.00
2018-11-27T05:28:14.049Z,0.00
2018-11-27T05:29:14.037Z,0.00
2018-11-27T05:30:14.028Z,0.00
2018-11-27T05:31:14.077Z,0.00
2018-11-27T05:32:14.033Z,0.00
2018-11-27T05:33:14.008Z,0.00
2018-11-27T05:34:13.991Z,0.00
2018-11-27T05:35:13.998Z,0.00
2018-11-27T05:36:14.078Z,0.00
2018-11-27T05:37:13.970Z,0.00
2018-11-27T05:38:13.944Z,0.00
2018-11-27T05:39:14.862Z,0.00
2018-11-27T05:40:13.934Z,0.00
2018-11-27T05:41:13.980Z,0.00
2018-11-27T05:42:13.903Z,0.00
2018-11-27T05:43:13.895Z,0.00
2018-11-27T05:44:13.899Z,0.00
2018-11-27T05:45:14.857Z,0.00
2018-11-27T05:46:13.929Z,0.00
2018-11-27T05:47:13.845Z,0.00
2018-11-27T05:48:13.837Z,0.00
2018-11-27T05:49:13.825Z,0.00
2018-11-27T05:50:13.820Z,0.00
2018-11-27T05:51:13.867Z,0.00
2018-11-27T05:52:13.837Z,0.00
2018-11-27T05:53:13.799Z,0.00
2018-11-27T05:54:13.772Z,0.00
2018-11-27T05:55:13.772Z,0.00
2018-11-27T05:56:13.857Z,0.00
2018-11-27T05:57:13.738Z,0.00
2018-11-27T05:58:13.738Z,0.00
2018-11-27T05:59:13.728Z,0.00
2018-11-27T06:00:14.371Z,0.00
2018-11-27T06:01:13.768Z,0.00
2018-11-27T06:02:13.727Z,0.00
2018-11-27T06:03:13.683Z,0.00
2018-11-27T06:04:13.674Z,0.00
2018-11-27T06:05:13.674Z,0.00
2018-11-27T06:06:13.958Z,0.00
2018-11-27T06:07:13.639Z,0.00
2018-11-27T06:08:13.652Z,0.00
2018-11-27T06:09:13.621Z,0.00
2018-11-27T06:10:13.620Z,0.00
2018-11-27T06:11:13.661Z,0.00
2018-11-27T06:12:13.593Z,0.00
2018-11-27T06:13:13.568Z,0.00
2018-11-27T06:14:13.557Z,0.00
2018-11-27T06:15:13.547Z,0.00
2018-11-27T06:16:13.605Z,0.00
2018-11-27T06:17:13.537Z,0.00
2018-11-27T06:18:13.529Z,0.00
2018-11-27T06:19:13.584Z,0.00
2018-11-27T06:20:13.504Z,0.00
2018-11-27T06:21:13.559Z,0.00
2018-11-27T06:22:13.494Z,0.00
2018-11-27T06:23:13.477Z,0.00
2018-11-27T06:24:13.452Z,0.00
2018-11-27T06:25:13.453Z,0.00
2018-11-27T06:26:13.504Z,0.00
2018-11-27T06:27:13.953Z,0.00
2018-11-27T06:28:13.407Z,0.00
2018-11-27T06:29:13.409Z,0.00
2018-11-27T06:30:13.389Z,0.00
2018-11-27T06:31:13.388Z,4.00
2018-11-27T06:32:13.438Z,4.00
2018-11-27T06:33:13.359Z,0.00
2018-11-27T06:34:13.344Z,4.00
2018-11-27T06:35:13.333Z,4.00
2018-11-27T06:36:13.326Z,8.00
2018-11-27T06:37:13.378Z,4.00
2018-11-27T06:38:13.301Z,4.00
2018-11-27T06:39:13.292Z,8.00
2018-11-27T06:40:13.282Z,12.00
2018-11-27T06:41:13.270Z,12.00
2018-11-27T06:42:13.319Z,16.00
2018-11-27T06:43:13.252Z,16.00
2018-11-27T06:44:13.243Z,20.00
2018-11-27T06:45:13.234Z,24.00
2018-11-27T06:46:13.222Z,28.00
2018-11-27T06:47:13.268Z,32.00
2018-11-27T06:48:13.849Z,36.00
2018-11-27T06:49:13.189Z,40.00
2018-11-27T06:50:13.183Z,44.00
2018-11-27T06:51:13.164Z,52.00
2018-11-27T06:52:13.228Z,60.00
2018-11-27T06:53:13.147Z,68.00
2018-11-27T06:54:13.134Z,76.00
2018-11-27T06:55:13.124Z,84.00
2018-11-27T06:56:13.141Z,96.00
2018-11-27T06:57:13.178Z,104.00
2018-11-27T06:58:13.099Z,112.00
2018-11-27T06:59:13.084Z,120.00
2018-11-27T07:00:13.103Z,132.00
2018-11-27T07:01:13.061Z,144.00
2018-11-27T07:02:13.110Z,156.00
2018-11-27T07:03:13.037Z,168.00
2018-11-27T07:04:13.028Z,184.00
2018-11-27T07:05:13.022Z,196.00
2018-11-27T07:06:13.006Z,212.00
2018-11-27T07:07:13.064Z,232.00
2018-11-27T07:08:12.989Z,252.00
2018-11-27T07:09:13.851Z,284.00
2018-11-27T07:10:12.963Z,308.00
2018-11-27T07:11:12.953Z,340.00
2018-11-27T07:12:13.005Z,368.00
2018-11-27T07:13:12.936Z,396.00
2018-11-27T07:14:12.932Z,424.00
2018-11-27T07:15:12.914Z,452.00
2018-11-27T07:16:12.900Z,480.00
2018-11-27T07:17:13.000Z,508.00
2018-11-27T07:18:12.881Z,536.00
2018-11-27T07:19:12.872Z,572.00
2018-11-27T07:20:12.856Z,604.00
2018-11-27T07:21:12.853Z,644.00
2018-11-27T07:22:12.897Z,684.00
2018-11-27T07:23:12.833Z,716.00
2018-11-27T07:24:12.813Z,752.00
2018-11-27T07:25:12.807Z,788.00
2018-11-27T07:26:12.795Z,828.00
2018-11-27T07:27:12.843Z,864.00
2018-11-27T07:28:12.785Z,900.00
2018-11-27T07:29:12.767Z,932.00
2018-11-27T07:30:13.341Z,956.00
2018-11-27T07:31:12.739Z,976.00
2018-11-27T07:32:12.798Z,1000.00
2018-11-27T07:33:12.726Z,1016.00
2018-11-27T07:34:12.706Z,1044.00
2018-11-27T07:35:12.699Z,1064.00
2018-11-27T07:36:12.693Z,1092.00
2018-11-27T07:37:12.742Z,1128.00
2018-11-27T07:38:12.670Z,1184.00
2018-11-27T07:39:12.656Z,1232.00
2018-11-27T07:40:12.646Z,1288.00
2018-11-27T07:41:12.636Z,1352.00
2018-11-27T07:42:12.689Z,1424.00
2018-11-27T07:43:12.611Z,1520.00
2018-11-27T07:44:12.606Z,1648.00
2018-11-27T07:45:12.606Z,1776.00
2018-11-27T07:46:12.581Z,1876.00
2018-11-27T07:47:12.639Z,1900.00
2018-11-27T07:48:12.581Z,1896.00
2018-11-27T07:49:12.551Z,1916.00
2018-11-27T07:50:12.537Z,1916.00
2018-11-27T07:51:13.335Z,1872.00
2018-11-27T07:52:12.581Z,1832.00
2018-11-27T07:53:12.511Z,1824.00
2018-11-27T07:54:12.522Z,1832.00
2018-11-27T07:55:12.493Z,1840.00
2018-11-27T07:56:12.479Z,1856.00
2018-11-27T07:57:12.536Z,1920.00
2018-11-27T07:58:12.456Z,1984.00
2018-11-27T07:59:12.445Z,2060.00
2018-11-27T08:00:12.431Z,2140.00
2018-11-27T08:01:13.333Z,2192.00
2018-11-27T08:02:12.484Z,2252.00
2018-11-27T08:03:12.399Z,2340.00
2018-11-27T08:04:12.393Z,2472.00
2018-11-27T08:05:12.398Z,2588.00
2018-11-27T08:06:12.371Z,2708.00
2018-11-27T08:07:12.424Z,2768.00
2018-11-27T08:08:12.387Z,2840.00
2018-11-27T08:09:12.341Z,2920.00
2018-11-27T08:10:12.332Z,2992.00
2018-11-27T08:11:12.321Z,2988.00
2018-11-27T08:12:12.929Z,2940.00
2018-11-27T08:13:12.298Z,2888.00
2018-11-27T08:14:12.282Z,2856.00
2018-11-27T08:15:12.272Z,2860.00
2018-11-27T08:16:12.262Z,2892.00
2018-11-27T08:17:12.310Z,3008.00
2018-11-27T08:18:12.278Z,3244.00
2018-11-27T08:19:12.229Z,3508.00
2018-11-27T08:20:12.219Z,3676.00
2018-11-27T08:21:12.213Z,3788.00
2018-11-27T08:22:12.267Z,3980.00
2018-11-27T08:23:12.233Z,4188.00
2018-11-27T08:24:12.178Z,4400.00
2018-11-27T08:25:12.165Z,4836.00
2018-11-27T08:26:12.177Z,5144.00
2018-11-27T08:27:12.142Z,5308.00
2018-11-27T08:28:12.202Z,5400.00
2018-11-27T08:29:12.134Z,5444.00
2018-11-27T08:30:12.115Z,5460.00
2018-11-27T08:31:12.103Z,5516.00
2018-11-27T08:32:12.096Z,5536.00
2018-11-27T08:33:12.408Z,5604.00
2018-11-27T08:34:12.073Z,5652.00
2018-11-27T08:35:12.061Z,5700.00
2018-11-27T08:36:12.050Z,5732.00
2018-11-27T08:37:12.060Z,5692.00
2018-11-27T08:38:12.087Z,5732.00
2018-11-27T08:39:12.022Z,6324.00
2018-11-27T08:40:12.008Z,5244.00
2018-11-27T08:41:11.994Z,5228.00
2018-11-27T08:42:11.998Z,5304.00
2018-11-27T08:43:12.036Z,5448.00
2018-11-27T08:44:11.966Z,6936.00
2018-11-27T08:45:11.949Z,8188.00
2018-11-27T08:46:11.979Z,7344.00
2018-11-27T08:47:11.938Z,7772.00
2018-11-27T08:48:11.995Z,10116.00
2018-11-27T08:49:11.909Z,10504.00
2018-11-27T08:50:11.898Z,11432.00
2018-11-27T08:51:11.886Z,12844.00
2018-11-27T08:52:11.882Z,13416.00
2018-11-27T08:53:11.932Z,15424.00
2018-11-27T08:54:12.829Z,14604.00
2018-11-27T08:55:11.860Z,12468.00
2018-11-27T08:56:11.841Z,12456.00
2018-11-27T08:57:11.826Z,15056.00
2018-11-27T08:58:11.883Z,16576.00
2018-11-27T08:59:11.803Z,14980.00
2018-11-27T09:00:11.794Z,13552.00
2018-11-27T09:01:11.788Z,14216.00
2018-11-27T09:02:11.773Z,14292.00
2018-11-27T09:03:11.871Z,15520.00
2018-11-27T09:04:11.749Z,14284.00
2018-11-27T09:05:11.737Z,13452.00
2018-11-27T09:06:11.725Z,14152.00
2018-11-27T09:07:11.716Z,16608.00
2018-11-27T09:08:11.773Z,18784.00
2018-11-27T09:09:11.701Z,20608.00
2018-11-27T09:10:11.694Z,20992.00
2018-11-27T09:11:11.674Z,18912.00
2018-11-27T09:12:11.663Z,18848.00
2018-11-27T09:13:11.919Z,20224.00
2018-11-27T09:14:11.639Z,20672.00
2018-11-27T09:15:12.337Z,19424.00
2018-11-27T09:16:11.622Z,18112.00
2018-11-27T09:17:11.607Z,18176.00
2018-11-27T09:18:11.663Z,18208.00
2018-11-27T09:19:11.588Z,18240.00
2018-11-27T09:20:11.579Z,19296.00
2018-11-27T09:21:11.570Z,20768.00
2018-11-27T09:22:12.850Z,20288.00
2018-11-27T09:23:11.610Z,18016.00
2018-11-27T09:24:11.535Z,14852.00
2018-11-27T09:25:11.520Z,13808.00
2018-11-27T09:26:11.517Z,13592.00
2018-11-27T09:27:11.506Z,13696.00
2018-11-27T09:28:11.559Z,13380.00
2018-11-27T09:29:11.479Z,13424.00
2018-11-27T09:30:11.475Z,13340.00
2018-11-27T09:31:11.463Z,13468.00
2018-11-27T09:32:11.446Z,13760.00
2018-11-27T09:33:11.505Z,15180.00
2018-11-27T09:34:11.425Z,17248.00
2018-11-27T09:35:11.416Z,19136.00
2018-11-27T09:36:12.322Z,18784.00
2018-11-27T09:37:11.395Z,17696.00
2018-11-27T09:38:11.450Z,17536.00
2018-11-27T09:39:11.374Z,18400.00
2018-11-27T09:40:11.368Z,19808.00
2018-11-27T09:41:11.351Z,20544.00
2018-11-27T09:42:11.344Z,20064.00
2018-11-27T09:43:11.393Z,19520.00
2018-11-27T09:44:11.317Z,20608.00
2018-11-27T09:45:11.308Z,23936.00
2018-11-27T09:46:11.314Z,27040.00
2018-11-27T09:47:11.289Z,28512.00
2018-11-27T09:48:11.345Z,29312.00
2018-11-27T09:49:11.265Z,28448.00
2018-11-27T09:50:11.255Z,26048.00
2018-11-27T09:51:11.242Z,26944.00
2018-11-27T09:52:11.233Z,28832.00
2018-11-27T09:53:11.295Z,30400.00
2018-11-27T09:54:11.211Z,28576.00
2018-11-27T09:55:11.199Z,24224.00
2018-11-27T09:56:11.190Z,18560.00
2018-11-27T09:57:11.823Z,17248.00
2018-11-27T09:58:11.231Z,16256.00
2018-11-27T09:59:11.157Z,15320.00
2018-11-27T10:00:11.232Z,14948.00
2018-11-27T10:01:11.134Z,14940.00
2018-11-27T10:02:11.827Z,13868.00
2018-11-27T10:03:11.177Z,13352.00
2018-11-27T10:04:11.102Z,12968.00
2018-11-27T10:05:11.095Z,12580.00
2018-11-27T10:06:11.083Z,12156.00
2018-11-27T10:07:11.077Z,11908.00
2018-11-27T10:08:11.132Z,11844.00
2018-11-27T10:09:11.051Z,11968.00
2018-11-27T10:10:11.065Z,12200.00
2018-11-27T10:11:11.027Z,12544.00
2018-11-27T10:12:11.020Z,13008.00
2018-11-27T10:13:11.001Z,13508.00
2018-11-27T10:14:11.119Z,13928.00
2018-11-27T10:15:10.988Z,14316.00
2018-11-27T10:16:10.974Z,14732.00
2018-11-27T10:17:10.965Z,15204.00
2018-11-27T10:18:11.824Z,15612.00
2018-11-27T10:19:11.007Z,15820.00
2018-11-27T10:20:10.930Z,16308.00
2018-11-27T10:21:10.922Z,16640.00
2018-11-27T10:22:10.924Z,16512.00
2018-11-27T10:23:10.903Z,16264.00
2018-11-27T10:24:10.951Z,15832.00
2018-11-27T10:25:10.878Z,15092.00
2018-11-27T10:26:10.866Z,14380.00
2018-11-27T10:27:10.857Z,13856.00
2018-11-27T10:28:10.842Z,13544.00
2018-11-27T10:29:10.903Z,13396.00
2018-11-27T10:30:10.827Z,13096.00
2018-11-27T10:31:10.813Z,12528.00
2018-11-27T10:32:10.801Z,11796.00
2018-11-27T10:33:10.792Z,11152.00
2018-11-27T10:34:10.851Z,10776.00
2018-11-27T10:35:10.768Z,10580.00
2018-11-27T10:36:10.758Z,10364.00
2018-11-27T10:37:10.747Z,10028.00
2018-11-27T10:38:10.738Z,9592.00
2018-11-27T10:39:10.893Z,9228.00
2018-11-27T10:40:10.714Z,9000.00
2018-11-27T10:41:10.729Z,8796.00
2018-11-27T10:42:10.698Z,8540.00
2018-11-27T10:43:10.688Z,8248.00
2018-11-27T10:44:10.771Z,8000.00
2018-11-27T10:45:10.663Z,7864.00
2018-11-27T10:46:10.695Z,7780.00
2018-11-27T10:47:10.640Z,7744.00
2018-11-27T10:48:10.632Z,7724.00
2018-11-27T10:49:10.683Z,7672.00
2018-11-27T10:50:10.613Z,7588.00
2018-11-27T10:51:10.598Z,7516.00
2018-11-27T10:52:10.587Z,7512.00
2018-11-27T10:53:10.575Z,7592.00
2018-11-27T10:54:10.632Z,7764.00
2018-11-27T10:55:10.557Z,7880.00
2018-11-27T10:56:10.545Z,7916.00
2018-11-27T10:57:10.533Z,7932.00
2018-11-27T10:58:10.521Z,8020.00
2018-11-27T10:59:10.579Z,8216.00
2018-11-27T11:00:11.329Z,8432.00
2018-11-27T11:01:10.488Z,8736.00
2018-11-27T11:02:10.516Z,9076.00
2018-11-27T11:03:10.467Z,9436.00
2018-11-27T11:04:10.528Z,9768.00
2018-11-27T11:05:10.449Z,10112.00
2018-11-27T11:06:10.435Z,10356.00
2018-11-27T11:07:10.423Z,10580.00
2018-11-27T11:08:10.412Z,10652.00
2018-11-27T11:09:10.466Z,10700.00
2018-11-27T11:10:10.393Z,10740.00
2018-11-27T11:11:10.384Z,10784.00
2018-11-27T11:12:10.370Z,10856.00
2018-11-27T11:13:10.361Z,11260.00
2018-11-27T11:14:10.425Z,11600.00
2018-11-27T11:15:10.337Z,11480.00
2018-11-27T11:16:10.325Z,12728.00
2018-11-27T11:17:10.321Z,11160.00
2018-11-27T11:18:10.307Z,11040.00
2018-11-27T11:19:10.353Z,11208.00
2018-11-27T11:20:10.283Z,11576.00
2018-11-27T11:21:10.821Z,11436.00
2018-11-27T11:22:10.261Z,12088.00
2018-11-27T11:23:10.248Z,11948.00
2018-11-27T11:24:10.302Z,11708.00
2018-11-27T11:25:10.241Z,11724.00
2018-11-27T11:26:10.263Z,11748.00
2018-11-27T11:27:10.214Z,11748.00
2018-11-27T11:28:10.197Z,11956.00
2018-11-27T11:29:10.253Z,14788.00
2018-11-27T11:30:10.178Z,11496.00
2018-11-27T11:31:10.176Z,11120.00
2018-11-27T11:32:10.157Z,10672.00
2018-11-27T11:33:10.143Z,10344.00
2018-11-27T11:34:10.198Z,10148.00
2018-11-27T11:35:10.127Z,10056.00
2018-11-27T11:36:10.111Z,10012.00
2018-11-27T11:37:10.103Z,10040.00
2018-11-27T11:38:10.092Z,10156.00
2018-11-27T11:39:10.149Z,10292.00
2018-11-27T11:40:10.711Z,10348.00
2018-11-27T11:41:10.061Z,10300.00
2018-11-27T11:42:10.045Z,10148.00
2018-11-27T11:43:10.036Z,9972.00
2018-11-27T11:44:10.093Z,9808.00
2018-11-27T11:45:10.012Z,9508.00
2018-11-27T11:46:10.001Z,9460.00
2018-11-27T11:47:09.991Z,9508.00
2018-11-27T11:48:09.987Z,9580.00
2018-11-27T11:49:10.037Z,9648.00
2018-11-27T11:50:09.972Z,9620.00
2018-11-27T11:51:09.950Z,9396.00
2018-11-27T11:52:09.937Z,9156.00
2018-11-27T11:53:09.937Z,8960.00
2018-11-27T11:54:09.983Z,8712.00
2018-11-27T11:55:09.908Z,8372.00
2018-11-27T11:56:09.896Z,8092.00
2018-11-27T11:57:09.890Z,8000.00
2018-11-27T11:58:09.872Z,8076.00
2018-11-27T11:59:09.929Z,8240.00
2018-11-27T12:00:09.854Z,8436.00
2018-11-27T12:01:09.841Z,8588.00
2018-11-27T12:02:09.833Z,8764.00
2018-11-27T12:03:09.819Z,8936.00
2018-11-27T12:04:10.390Z,9040.00
2018-11-27T12:05:09.800Z,9092.00
2018-11-27T12:06:09.788Z,9172.00
2018-11-27T12:07:09.777Z,9336.00
2018-11-27T12:08:09.765Z,9692.00
2018-11-27T12:09:09.822Z,10252.00
2018-11-27T12:10:09.808Z,10880.00
2018-11-27T12:11:09.737Z,11528.00
2018-11-27T12:12:09.724Z,16192.00
2018-11-27T12:13:09.713Z,14524.00
2018-11-27T12:14:09.705Z,16288.00
2018-11-27T12:15:09.788Z,14272.00
2018-11-27T12:16:09.741Z,15624.00
2018-11-27T12:17:09.672Z,17120.00
2018-11-27T12:18:09.663Z,16224.00
2018-11-27T12:19:09.645Z,14880.00
2018-11-27T12:20:09.698Z,15016.00
2018-11-27T12:21:09.627Z,16864.00
2018-11-27T12:22:09.621Z,16384.00
2018-11-27T12:23:09.736Z,16576.00
2018-11-27T12:24:09.600Z,17216.00
2018-11-27T12:25:09.880Z,18432.00
2018-11-27T12:26:09.571Z,15860.00
2018-11-27T12:27:09.563Z,15344.00
2018-11-27T12:28:14.368Z,18976.00
2018-11-27T12:29:12.573Z,14024.00
2018-11-27T12:30:09.600Z,13464.00
2018-11-27T12:31:09.518Z,13064.00
2018-11-27T12:32:09.509Z,12692.00
2018-11-27T12:33:09.501Z,12200.00
2018-11-27T12:34:09.488Z,11908.00
2018-11-27T12:35:10.229Z,11736.00
2018-11-27T12:36:09.467Z,11652.00
2018-11-27T12:37:09.459Z,11604.00
2018-11-27T12:38:09.443Z,11472.00
2018-11-27T12:39:09.431Z,11224.00